sensor_id;sensor_type;location;lat;lon;timestamp;P1;durP1;ratioP1;P2;durP2;ratioP2
20559;SDS011;10438;51.454;6.718;2022-11-20T00:00:50;27.47;;;14.83;;
20559;SDS011;10438;51.454;6.718;2022-11-20T00:03:16;28.20;;;15.77;;
20559;SDS011;10438;51.454;6.718;2022-11-20T00:05:42;24.80;;;13.90;;
20559;SDS011;10438;51.454;6.718;2022-11-20T00:08:08;25.87;;;14.30;;
20559;SDS011;10438;51.454;6.718;2022-11-20T00:10:35;28.43;;;14.47;;
20559;SDS011;10438;51.454;6.718;2022-11-20T00:13:02;31.83;;;15.80;;
20559;SDS011;10438;51.454;6.718;2022-11-20T00:15:27;29.67;;;16.00;;
20559;SDS011;10438;51.454;6.718;2022-11-20T00:17:53;30.47;;;15.17;;
20559;SDS011;10438;51.454;6.718;2022-11-20T00:20:18;31.00;;;15.83;;
20559;SDS011;10438;51.454;6.718;2022-11-20T00:22:44;35.73;;;16.50;;
20559;SDS011;10438;51.454;6.718;2022-11-20T00:25:10;33.27;;;16.10;;
20559;SDS011;10438;51.454;6.718;2022-11-20T00:27:36;27.73;;;15.27;;
20559;SDS011;10438;51.454;6.718;2022-11-20T00:30:02;33.67;;;16.30;;
20559;SDS011;10438;51.454;6.718;2022-11-20T00:32:29;29.97;;;15.60;;
20559;SDS011;10438;51.454;6.718;2022-11-20T00:34:54;32.50;;;16.77;;
20559;SDS011;10438;51.454;6.718;2022-11-20T00:37:20;30.73;;;16.57;;
20559;SDS011;10438;51.454;6.718;2022-11-20T00:39:45;30.13;;;16.43;;
20559;SDS011;10438;51.454;6.718;2022-11-20T00:42:11;30.87;;;16.77;;
20559;SDS011;10438;51.454;6.718;2022-11-20T00:44:36;33.00;;;17.93;;
20559;SDS011;10438;51.454;6.718;2022-11-20T00:47:02;37.50;;;19.07;;
20559;SDS011;10438;51.454;6.718;2022-11-20T00:49:27;38.17;;;17.43;;
20559;SDS011;10438;51.454;6.718;2022-11-20T00:51:53;35.30;;;17.77;;
20559;SDS011;10438;51.454;6.718;2022-11-20T00:54:18;33.00;;;17.67;;
20559;SDS011;10438;51.454;6.718;2022-11-20T00:56:44;33.87;;;16.90;;
20559;SDS011;10438;51.454;6.718;2022-11-20T00:59:09;35.03;;;17.83;;
20559;SDS011;10438;51.454;6.718;2022-11-20T01:01:36;34.33;;;17.47;;
20559;SDS011;10438;51.454;6.718;2022-11-20T01:04:02;36.17;;;17.80;;
20559;SDS011;10438;51.454;6.718;2022-11-20T01:06:29;32.60;;;17.90;;
20559;SDS011;10438;51.454;6.718;2022-11-20T01:09:02;36.37;;;18.03;;
20559;SDS011;10438;51.454;6.718;2022-11-20T01:11:31;34.67;;;17.00;;
20559;SDS011;10438;51.454;6.718;2022-11-20T01:14:00;33.50;;;19.10;;
20559;SDS011;10438;51.454;6.718;2022-11-20T01:16:28;32.03;;;17.63;;
20559;SDS011;10438;51.454;6.718;2022-11-20T01:19:03;39.53;;;18.70;;
20559;SDS011;10438;51.454;6.718;2022-11-20T01:21:34;33.10;;;17.27;;
20559;SDS011;10438;51.454;6.718;2022-11-20T01:24:02;35.67;;;18.77;;
20559;SDS011;10438;51.454;6.718;2022-11-20T01:26:30;32.47;;;18.77;;
20559;SDS011;10438;51.454;6.718;2022-11-20T01:28:57;36.53;;;19.77;;
20559;SDS011;10438;51.454;6.718;2022-11-20T01:31:28;38.60;;;20.93;;
20559;SDS011;10438;51.454;6.718;2022-11-20T01:33:56;39.13;;;20.40;;
20559;SDS011;10438;51.454;6.718;2022-11-20T01:36:24;41.03;;;22.47;;
20559;SDS011;10438;51.454;6.718;2022-11-20T01:38:52;43.53;;;23.67;;
20559;SDS011;10438;51.454;6.718;2022-11-20T01:41:19;45.37;;;24.00;;
20559;SDS011;10438;51.454;6.718;2022-11-20T01:44:04;43.03;;;24.80;;
20559;SDS011;10438;51.454;6.718;2022-11-20T01:46:36;48.10;;;25.77;;
20559;SDS011;10438;51.454;6.718;2022-11-20T01:49:05;44.30;;;24.97;;
20559;SDS011;10438;51.454;6.718;2022-11-20T01:51:50;40.83;;;24.60;;
20559;SDS011;10438;51.454;6.718;2022-11-20T01:54:22;43.17;;;23.43;;
20559;SDS011;10438;51.454;6.718;2022-11-20T01:56:55;40.17;;;22.13;;
20559;SDS011;10438;51.454;6.718;2022-11-20T01:59:22;40.27;;;21.43;;
20559;SDS011;10438;51.454;6.718;2022-11-20T02:01:49;37.83;;;21.27;;
20559;SDS011;10438;51.454;6.718;2022-11-20T02:04:15;38.60;;;21.37;;
20559;SDS011;10438;51.454;6.718;2022-11-20T02:09:09;34.60;;;19.90;;
20559;SDS011;10438;51.454;6.718;2022-11-20T02:11:35;32.67;;;18.00;;
20559;SDS011;10438;51.454;6.718;2022-11-20T02:14:00;37.47;;;18.43;;
20559;SDS011;10438;51.454;6.718;2022-11-20T02:16:37;34.40;;;18.80;;
20559;SDS011;10438;51.454;6.718;2022-11-20T02:19:07;35.67;;;18.23;;
20559;SDS011;10438;51.454;6.718;2022-11-20T02:21:48;33.00;;;18.30;;
20559;SDS011;10438;51.454;6.718;2022-11-20T02:24:21;35.93;;;18.40;;
20559;SDS011;10438;51.454;6.718;2022-11-20T02:26:54;34.90;;;18.23;;
20559;SDS011;10438;51.454;6.718;2022-11-20T02:29:40;30.60;;;17.17;;
20559;SDS011;10438;51.454;6.718;2022-11-20T02:32:23;32.80;;;18.20;;
20559;SDS011;10438;51.454;6.718;2022-11-20T02:34:50;37.63;;;19.07;;
20559;SDS011;10438;51.454;6.718;2022-11-20T02:37:16;39.10;;;21.83;;
20559;SDS011;10438;51.454;6.718;2022-11-20T02:39:43;41.90;;;21.77;;
20559;SDS011;10438;51.454;6.718;2022-11-20T02:42:12;42.53;;;22.03;;
20559;SDS011;10438;51.454;6.718;2022-11-20T02:44:37;42.97;;;23.83;;
20559;SDS011;10438;51.454;6.718;2022-11-20T02:47:03;41.77;;;24.60;;
20559;SDS011;10438;51.454;6.718;2022-11-20T02:49:28;45.40;;;25.03;;
20559;SDS011;10438;51.454;6.718;2022-11-20T02:51:54;41.63;;;23.13;;
20559;SDS011;10438;51.454;6.718;2022-11-20T02:54:19;43.53;;;24.13;;
20559;SDS011;10438;51.454;6.718;2022-11-20T02:56:45;37.70;;;23.90;;
20559;SDS011;10438;51.454;6.718;2022-11-20T02:59:10;43.33;;;24.53;;
20559;SDS011;10438;51.454;6.718;2022-11-20T03:01:36;39.70;;;22.70;;
20559;SDS011;10438;51.454;6.718;2022-11-20T03:04:02;42.07;;;24.50;;
20559;SDS011;10438;51.454;6.718;2022-11-20T03:06:31;40.13;;;24.10;;
20559;SDS011;10438;51.454;6.718;2022-11-20T03:08:57;43.30;;;24.80;;
20559;SDS011;10438;51.454;6.718;2022-11-20T03:11:23;50.83;;;24.93;;
20559;SDS011;10438;51.454;6.718;2022-11-20T03:13:48;42.57;;;24.30;;
20559;SDS011;10438;51.454;6.718;2022-11-20T03:16:15;41.60;;;23.87;;
20559;SDS011;10438;51.454;6.718;2022-11-20T03:18:42;41.43;;;24.57;;
20559;SDS011;10438;51.454;6.718;2022-11-20T03:21:08;45.10;;;24.47;;
20559;SDS011;10438;51.454;6.718;2022-11-20T03:23:35;41.43;;;24.13;;
20559;SDS011;10438;51.454;6.718;2022-11-20T03:26:08;44.63;;;25.60;;
20559;SDS011;10438;51.454;6.718;2022-11-20T03:28:52;41.50;;;23.93;;
20559;SDS011;10438;51.454;6.718;2022-11-20T03:31:28;43.43;;;24.43;;
20559;SDS011;10438;51.454;6.718;2022-11-20T03:33:59;42.47;;;24.60;;
20559;SDS011;10438;51.454;6.718;2022-11-20T03:36:25;41.27;;;23.60;;
20559;SDS011;10438;51.454;6.718;2022-11-20T03:38:52;40.20;;;23.33;;
20559;SDS011;10438;51.454;6.718;2022-11-20T03:41:20;41.77;;;23.73;;
20559;SDS011;10438;51.454;6.718;2022-11-20T03:43:48;38.13;;;23.40;;
20559;SDS011;10438;51.454;6.718;2022-11-20T03:46:15;39.27;;;23.30;;
20559;SDS011;10438;51.454;6.718;2022-11-20T03:48:41;39.37;;;23.90;;
20559;SDS011;10438;51.454;6.718;2022-11-20T03:51:25;38.67;;;23.47;;
20559;SDS011;10438;51.454;6.718;2022-11-20T03:53:53;39.03;;;23.40;;
20559;SDS011;10438;51.454;6.718;2022-11-20T03:56:21;38.03;;;22.23;;
20559;SDS011;10438;51.454;6.718;2022-11-20T03:58:48;40.97;;;22.87;;
20559;SDS011;10438;51.454;6.718;2022-11-20T04:01:18;35.67;;;22.17;;
20559;SDS011;10438;51.454;6.718;2022-11-20T04:03:48;41.70;;;23.00;;
20559;SDS011;10438;51.454;6.718;2022-11-20T04:06:17;40.50;;;22.17;;
20559;SDS011;10438;51.454;6.718;2022-11-20T04:08:44;39.70;;;22.93;;
20559;SDS011;10438;51.454;6.718;2022-11-20T04:13:40;39.17;;;21.37;;
20559;SDS011;10438;51.454;6.718;2022-11-20T04:16:07;39.80;;;22.33;;
20559;SDS011;10438;51.454;6.718;2022-11-20T04:18:34;41.20;;;22.97;;
20559;SDS011;10438;51.454;6.718;2022-11-20T04:21:00;39.37;;;22.00;;
20559;SDS011;10438;51.454;6.718;2022-11-20T04:23:26;40.77;;;20.93;;
20559;SDS011;10438;51.454;6.718;2022-11-20T04:25:52;41.40;;;20.67;;
20559;SDS011;10438;51.454;6.718;2022-11-20T04:28:18;38.60;;;21.10;;
20559;SDS011;10438;51.454;6.718;2022-11-20T04:30:43;35.47;;;21.73;;
20559;SDS011;10438;51.454;6.718;2022-11-20T04:33:09;37.37;;;20.83;;
20559;SDS011;10438;51.454;6.718;2022-11-20T04:35:35;39.00;;;21.80;;
20559;SDS011;10438;51.454;6.718;2022-11-20T04:38:01;39.43;;;22.03;;
20559;SDS011;10438;51.454;6.718;2022-11-20T04:40:28;37.07;;;21.40;;
20559;SDS011;10438;51.454;6.718;2022-11-20T04:42:53;40.60;;;22.43;;
20559;SDS011;10438;51.454;6.718;2022-11-20T04:45:19;38.97;;;21.83;;
20559;SDS011;10438;51.454;6.718;2022-11-20T04:47:46;44.77;;;23.00;;
20559;SDS011;10438;51.454;6.718;2022-11-20T04:50:11;40.67;;;22.70;;
20559;SDS011;10438;51.454;6.718;2022-11-20T04:52:37;39.10;;;22.53;;
20559;SDS011;10438;51.454;6.718;2022-11-20T04:55:02;41.80;;;23.07;;
20559;SDS011;10438;51.454;6.718;2022-11-20T04:57:28;37.77;;;21.67;;
20559;SDS011;10438;51.454;6.718;2022-11-20T04:59:54;40.37;;;22.10;;
20559;SDS011;10438;51.454;6.718;2022-11-20T05:02:20;35.47;;;21.33;;
20559;SDS011;10438;51.454;6.718;2022-11-20T05:04:45;37.57;;;21.97;;
20559;SDS011;10438;51.454;6.718;2022-11-20T05:07:11;39.40;;;21.67;;
20559;SDS011;10438;51.454;6.718;2022-11-20T05:09:37;40.87;;;23.20;;
20559;SDS011;10438;51.454;6.718;2022-11-20T05:12:02;43.07;;;22.37;;
20559;SDS011;10438;51.454;6.718;2022-11-20T05:14:28;42.37;;;23.57;;
20559;SDS011;10438;51.454;6.718;2022-11-20T05:16:53;37.83;;;21.97;;
20559;SDS011;10438;51.454;6.718;2022-11-20T05:19:19;39.40;;;21.77;;
20559;SDS011;10438;51.454;6.718;2022-11-20T05:21:44;38.67;;;21.67;;
20559;SDS011;10438;51.454;6.718;2022-11-20T05:24:10;36.00;;;20.83;;
20559;SDS011;10438;51.454;6.718;2022-11-20T05:26:35;36.07;;;21.27;;
20559;SDS011;10438;51.454;6.718;2022-11-20T05:29:01;42.03;;;21.97;;
20559;SDS011;10438;51.454;6.718;2022-11-20T05:31:26;35.97;;;20.73;;
20559;SDS011;10438;51.454;6.718;2022-11-20T05:33:52;39.50;;;21.97;;
20559;SDS011;10438;51.454;6.718;2022-11-20T05:36:18;35.30;;;21.43;;
20559;SDS011;10438;51.454;6.718;2022-11-20T05:38:44;37.93;;;22.00;;
20559;SDS011;10438;51.454;6.718;2022-11-20T05:41:13;41.57;;;23.30;;
20559;SDS011;10438;51.454;6.718;2022-11-20T05:43:43;36.57;;;21.90;;
20559;SDS011;10438;51.454;6.718;2022-11-20T05:46:10;39.53;;;23.17;;
20559;SDS011;10438;51.454;6.718;2022-11-20T05:48:37;41.77;;;22.97;;
20559;SDS011;10438;51.454;6.718;2022-11-20T05:51:05;42.90;;;24.80;;
20559;SDS011;10438;51.454;6.718;2022-11-20T05:53:32;37.80;;;23.20;;
20559;SDS011;10438;51.454;6.718;2022-11-20T05:58:28;40.53;;;23.63;;
20559;SDS011;10438;51.454;6.718;2022-11-20T06:00:58;44.40;;;24.97;;
20559;SDS011;10438;51.454;6.718;2022-11-20T06:03:47;43.07;;;24.10;;
20559;SDS011;10438;51.454;6.718;2022-11-20T06:06:15;43.77;;;23.83;;
20559;SDS011;10438;51.454;6.718;2022-11-20T06:08:41;44.07;;;23.77;;
20559;SDS011;10438;51.454;6.718;2022-11-20T06:11:08;41.00;;;23.67;;
20559;SDS011;10438;51.454;6.718;2022-11-20T06:13:37;40.20;;;23.27;;
20559;SDS011;10438;51.454;6.718;2022-11-20T06:16:02;38.93;;;23.47;;
20559;SDS011;10438;51.454;6.718;2022-11-20T06:18:28;41.43;;;23.83;;
20559;SDS011;10438;51.454;6.718;2022-11-20T06:21:02;42.37;;;23.00;;
20559;SDS011;10438;51.454;6.718;2022-11-20T06:23:29;40.23;;;24.00;;
20559;SDS011;10438;51.454;6.718;2022-11-20T06:25:56;42.40;;;24.13;;
20559;SDS011;10438;51.454;6.718;2022-11-20T06:28:25;43.87;;;23.53;;
20559;SDS011;10438;51.454;6.718;2022-11-20T06:30:51;48.03;;;23.57;;
20559;SDS011;10438;51.454;6.718;2022-11-20T06:33:16;46.97;;;25.03;;
20559;SDS011;10438;51.454;6.718;2022-11-20T06:35:41;45.53;;;23.53;;
20559;SDS011;10438;51.454;6.718;2022-11-20T06:38:07;45.10;;;24.70;;
20559;SDS011;10438;51.454;6.718;2022-11-20T06:40:32;43.57;;;23.83;;
20559;SDS011;10438;51.454;6.718;2022-11-20T06:42:58;46.70;;;25.07;;
20559;SDS011;10438;51.454;6.718;2022-11-20T06:45:23;39.83;;;23.33;;
20559;SDS011;10438;51.454;6.718;2022-11-20T06:47:49;38.60;;;22.80;;
20559;SDS011;10438;51.454;6.718;2022-11-20T06:50:14;47.83;;;30.93;;
20559;SDS011;10438;51.454;6.718;2022-11-20T06:52:40;45.33;;;25.70;;
20559;SDS011;10438;51.454;6.718;2022-11-20T06:55:06;40.23;;;25.13;;
20559;SDS011;10438;51.454;6.718;2022-11-20T06:57:31;44.53;;;24.97;;
20559;SDS011;10438;51.454;6.718;2022-11-20T06:59:57;44.03;;;25.07;;
20559;SDS011;10438;51.454;6.718;2022-11-20T07:02:23;45.63;;;26.40;;
20559;SDS011;10438;51.454;6.718;2022-11-20T07:04:48;41.20;;;25.40;;
20559;SDS011;10438;51.454;6.718;2022-11-20T07:07:14;45.27;;;27.27;;
20559;SDS011;10438;51.454;6.718;2022-11-20T07:09:39;43.67;;;25.67;;
20559;SDS011;10438;51.454;6.718;2022-11-20T07:12:05;46.03;;;26.90;;
20559;SDS011;10438;51.454;6.718;2022-11-20T07:14:30;42.87;;;25.17;;
20559;SDS011;10438;51.454;6.718;2022-11-20T07:16:56;44.20;;;25.63;;
20559;SDS011;10438;51.454;6.718;2022-11-20T07:19:21;41.87;;;24.90;;
20559;SDS011;10438;51.454;6.718;2022-11-20T07:21:47;63.07;;;25.33;;
20559;SDS011;10438;51.454;6.718;2022-11-20T07:24:12;43.63;;;25.47;;
20559;SDS011;10438;51.454;6.718;2022-11-20T07:26:38;42.00;;;25.63;;
20559;SDS011;10438;51.454;6.718;2022-11-20T07:29:03;46.67;;;24.50;;
20559;SDS011;10438;51.454;6.718;2022-11-20T07:31:29;43.90;;;24.43;;
20559;SDS011;10438;51.454;6.718;2022-11-20T07:33:54;44.23;;;25.30;;
20559;SDS011;10438;51.454;6.718;2022-11-20T07:36:20;38.30;;;23.17;;
20559;SDS011;10438;51.454;6.718;2022-11-20T07:38:46;45.03;;;25.00;;
20559;SDS011;10438;51.454;6.718;2022-11-20T07:41:11;38.87;;;23.17;;
20559;SDS011;10438;51.454;6.718;2022-11-20T07:43:37;40.80;;;23.03;;
20559;SDS011;10438;51.454;6.718;2022-11-20T07:46:03;42.00;;;23.33;;
20559;SDS011;10438;51.454;6.718;2022-11-20T07:48:28;45.57;;;24.07;;
20559;SDS011;10438;51.454;6.718;2022-11-20T07:50:54;43.57;;;24.50;;
20559;SDS011;10438;51.454;6.718;2022-11-20T07:53:20;42.87;;;25.57;;
20559;SDS011;10438;51.454;6.718;2022-11-20T07:55:46;45.70;;;24.90;;
20559;SDS011;10438;51.454;6.718;2022-11-20T07:58:12;45.57;;;24.67;;
20559;SDS011;10438;51.454;6.718;2022-11-20T08:00:38;49.30;;;26.37;;
20559;SDS011;10438;51.454;6.718;2022-11-20T08:03:04;41.70;;;24.63;;
20559;SDS011;10438;51.454;6.718;2022-11-20T08:05:30;45.87;;;24.93;;
20559;SDS011;10438;51.454;6.718;2022-11-20T08:07:56;41.90;;;24.07;;
20559;SDS011;10438;51.454;6.718;2022-11-20T08:10:21;38.87;;;22.47;;
20559;SDS011;10438;51.454;6.718;2022-11-20T08:12:50;37.00;;;22.77;;
20559;SDS011;10438;51.454;6.718;2022-11-20T08:15:35;41.20;;;23.83;;
20559;SDS011;10438;51.454;6.718;2022-11-20T08:18:03;42.70;;;23.50;;
20559;SDS011;10438;51.454;6.718;2022-11-20T08:20:29;38.77;;;22.00;;
20559;SDS011;10438;51.454;6.718;2022-11-20T08:23:02;41.67;;;22.37;;
20559;SDS011;10438;51.454;6.718;2022-11-20T08:25:32;36.03;;;20.40;;
20559;SDS011;10438;51.454;6.718;2022-11-20T08:27:59;35.53;;;20.93;;
20559;SDS011;10438;51.454;6.718;2022-11-20T08:30:25;40.87;;;21.77;;
20559;SDS011;10438;51.454;6.718;2022-11-20T08:32:52;41.30;;;20.47;;
20559;SDS011;10438;51.454;6.718;2022-11-20T08:35:18;39.70;;;21.10;;
20559;SDS011;10438;51.454;6.718;2022-11-20T08:37:47;36.63;;;21.13;;
20559;SDS011;10438;51.454;6.718;2022-11-20T08:40:13;34.23;;;20.67;;
20559;SDS011;10438;51.454;6.718;2022-11-20T08:42:49;32.30;;;19.03;;
20559;SDS011;10438;51.454;6.718;2022-11-20T08:45:16;37.40;;;20.07;;
20559;SDS011;10438;51.454;6.718;2022-11-20T08:47:42;33.97;;;18.93;;
20559;SDS011;10438;51.454;6.718;2022-11-20T08:50:09;37.63;;;19.33;;
20559;SDS011;10438;51.454;6.718;2022-11-20T08:52:36;36.57;;;18.47;;
20559;SDS011;10438;51.454;6.718;2022-11-20T08:55:02;33.40;;;18.33;;
20559;SDS011;10438;51.454;6.718;2022-11-20T08:57:28;33.40;;;17.87;;
20559;SDS011;10438;51.454;6.718;2022-11-20T08:59:57;32.10;;;17.57;;
20559;SDS011;10438;51.454;6.718;2022-11-20T09:02:22;27.67;;;15.37;;
20559;SDS011;10438;51.454;6.718;2022-11-20T09:04:48;27.93;;;15.67;;
20559;SDS011;10438;51.454;6.718;2022-11-20T09:07:13;30.77;;;15.73;;
20559;SDS011;10438;51.454;6.718;2022-11-20T09:09:39;27.43;;;15.80;;
20559;SDS011;10438;51.454;6.718;2022-11-20T09:12:04;27.00;;;15.80;;
20559;SDS011;10438;51.454;6.718;2022-11-20T09:14:30;26.33;;;14.47;;
20559;SDS011;10438;51.454;6.718;2022-11-20T09:16:55;22.77;;;13.90;;
20559;SDS011;10438;51.454;6.718;2022-11-20T09:19:21;24.07;;;14.10;;
20559;SDS011;10438;51.454;6.718;2022-11-20T09:21:49;24.03;;;13.93;;
20559;SDS011;10438;51.454;6.718;2022-11-20T09:24:14;25.23;;;14.00;;
20559;SDS011;10438;51.454;6.718;2022-11-20T09:26:40;23.80;;;13.93;;
20559;SDS011;10438;51.454;6.718;2022-11-20T09:29:05;27.43;;;15.47;;
20559;SDS011;10438;51.454;6.718;2022-11-20T09:31:31;31.10;;;14.53;;
20559;SDS011;10438;51.454;6.718;2022-11-20T09:33:57;23.33;;;14.40;;
20559;SDS011;10438;51.454;6.718;2022-11-20T09:36:22;22.13;;;13.50;;
20559;SDS011;10438;51.454;6.718;2022-11-20T09:38:48;24.27;;;12.60;;
20559;SDS011;10438;51.454;6.718;2022-11-20T09:44:19;21.97;;;13.73;;
20559;SDS011;10438;51.454;6.718;2022-11-20T09:47:20;23.80;;;12.60;;
20559;SDS011;10438;51.454;6.718;2022-11-20T09:50:25;26.43;;;13.60;;
20559;SDS011;10438;51.454;6.718;2022-11-20T09:53:20;26.87;;;14.27;;
20559;SDS011;10438;51.454;6.718;2022-11-20T09:55:48;29.80;;;14.63;;
20559;SDS011;10438;51.454;6.718;2022-11-20T10:01:19;23.93;;;12.77;;
20559;SDS011;10438;51.454;6.718;2022-11-20T10:09:29;25.70;;;14.40;;
20559;SDS011;10438;51.454;6.718;2022-11-20T10:20:23;29.60;;;14.93;;
20559;SDS011;10438;51.454;6.718;2022-11-20T10:23:18;29.43;;;15.03;;
20559;SDS011;10438;51.454;6.718;2022-11-20T10:26:03;28.13;;;15.13;;
20559;SDS011;10438;51.454;6.718;2022-11-20T10:29:17;26.30;;;15.30;;
20559;SDS011;10438;51.454;6.718;2022-11-20T10:31:47;28.80;;;16.80;;
20559;SDS011;10438;51.454;6.718;2022-11-20T10:34:19;32.53;;;16.00;;
20559;SDS011;10438;51.454;6.718;2022-11-20T10:37:04;27.60;;;15.20;;
20559;SDS011;10438;51.454;6.718;2022-11-20T10:42:34;32.10;;;16.17;;
20559;SDS011;10438;51.454;6.718;2022-11-20T10:45:28;29.50;;;16.63;;
20559;SDS011;10438;51.454;6.718;2022-11-20T10:47:52;30.47;;;16.57;;
20559;SDS011;10438;51.454;6.718;2022-11-20T10:50:21;29.83;;;17.07;;
20559;SDS011;10438;51.454;6.718;2022-11-20T10:55:46;29.63;;;16.20;;
20559;SDS011;10438;51.454;6.718;2022-11-20T10:58:42;29.40;;;16.70;;
20559;SDS011;10438;51.454;6.718;2022-11-20T11:01:16;28.00;;;16.40;;
20559;SDS011;10438;51.454;6.718;2022-11-20T11:03:44;29.77;;;16.67;;
20559;SDS011;10438;51.454;6.718;2022-11-20T11:06:17;31.23;;;17.10;;
20559;SDS011;10438;51.454;6.718;2022-11-20T11:08:49;32.40;;;16.57;;
20559;SDS011;10438;51.454;6.718;2022-11-20T11:11:22;30.10;;;17.80;;
20559;SDS011;10438;51.454;6.718;2022-11-20T11:13:50;29.37;;;16.60;;
20559;SDS011;10438;51.454;6.718;2022-11-20T11:16:26;28.87;;;16.23;;
20559;SDS011;10438;51.454;6.718;2022-11-20T11:19:02;31.13;;;16.80;;
20559;SDS011;10438;51.454;6.718;2022-11-20T11:21:29;32.40;;;17.10;;
20559;SDS011;10438;51.454;6.718;2022-11-20T11:24:01;37.30;;;17.73;;
20559;SDS011;10438;51.454;6.718;2022-11-20T11:26:28;32.40;;;17.70;;
20559;SDS011;10438;51.454;6.718;2022-11-20T11:31:28;28.83;;;17.00;;
20559;SDS011;10438;51.454;6.718;2022-11-20T11:36:40;30.40;;;16.47;;
20559;SDS011;10438;51.454;6.718;2022-11-20T11:39:08;28.27;;;16.67;;
20559;SDS011;10438;51.454;6.718;2022-11-20T11:41:39;30.70;;;17.17;;
20559;SDS011;10438;51.454;6.718;2022-11-20T11:44:15;35.60;;;18.70;;
20559;SDS011;10438;51.454;6.718;2022-11-20T11:47:06;29.73;;;16.27;;
20559;SDS011;10438;51.454;6.718;2022-11-20T11:50:02;30.70;;;17.63;;
20559;SDS011;10438;51.454;6.718;2022-11-20T11:52:27;31.43;;;16.83;;
20559;SDS011;10438;51.454;6.718;2022-11-20T11:54:59;30.20;;;16.07;;
20559;SDS011;10438;51.454;6.718;2022-11-20T11:57:29;30.20;;;17.00;;
20559;SDS011;10438;51.454;6.718;2022-11-20T12:00:02;29.83;;;16.67;;
20559;SDS011;10438;51.454;6.718;2022-11-20T12:05:20;31.43;;;16.30;;
20559;SDS011;10438;51.454;6.718;2022-11-20T12:07:52;31.67;;;16.97;;
20559;SDS011;10438;51.454;6.718;2022-11-20T12:10:23;30.13;;;15.33;;
20559;SDS011;10438;51.454;6.718;2022-11-20T12:15:55;29.07;;;15.40;;
20559;SDS011;10438;51.454;6.718;2022-11-20T12:18:21;35.03;;;15.37;;
20559;SDS011;10438;51.454;6.718;2022-11-20T12:20:55;31.90;;;17.20;;
20559;SDS011;10438;51.454;6.718;2022-11-20T12:23:51;30.80;;;16.87;;
20559;SDS011;10438;51.454;6.718;2022-11-20T12:30:00;29.40;;;15.10;;
20559;SDS011;10438;51.454;6.718;2022-11-20T12:52:51;28.20;;;14.80;;
20559;SDS011;10438;51.454;6.718;2022-11-20T13:01:08;26.23;;;14.37;;
20559;SDS011;10438;51.454;6.718;2022-11-20T13:04:08;27.33;;;15.07;;
20559;SDS011;10438;51.454;6.718;2022-11-20T13:06:54;26.97;;;15.27;;
20559;SDS011;10438;51.454;6.718;2022-11-20T13:09:21;26.77;;;14.90;;
20559;SDS011;10438;51.454;6.718;2022-11-20T13:11:50;27.83;;;14.63;;
20559;SDS011;10438;51.454;6.718;2022-11-20T13:14:37;29.00;;;15.67;;
20559;SDS011;10438;51.454;6.718;2022-11-20T13:20:23;30.90;;;16.23;;
20559;SDS011;10438;51.454;6.718;2022-11-20T13:22:50;31.00;;;15.90;;
20559;SDS011;10438;51.454;6.718;2022-11-20T13:25:24;30.50;;;15.27;;
20559;SDS011;10438;51.454;6.718;2022-11-20T13:27:57;30.03;;;15.20;;
20559;SDS011;10438;51.454;6.718;2022-11-20T13:30:50;30.80;;;15.97;;
20559;SDS011;10438;51.454;6.718;2022-11-20T13:36:03;29.00;;;15.53;;
20559;SDS011;10438;51.454;6.718;2022-11-20T13:41:29;28.23;;;15.97;;
20559;SDS011;10438;51.454;6.718;2022-11-20T13:43:59;30.30;;;16.00;;
20559;SDS011;10438;51.454;6.718;2022-11-20T13:46:43;30.97;;;16.97;;
20559;SDS011;10438;51.454;6.718;2022-11-20T13:49:16;31.53;;;16.47;;
20559;SDS011;10438;51.454;6.718;2022-11-20T13:51:52;33.00;;;18.13;;
20559;SDS011;10438;51.454;6.718;2022-11-20T13:58:04;31.97;;;16.80;;
20559;SDS011;10438;51.454;6.718;2022-11-20T14:00:57;36.87;;;18.50;;
20559;SDS011;10438;51.454;6.718;2022-11-20T14:03:29;36.03;;;18.20;;
20559;SDS011;10438;51.454;6.718;2022-11-20T14:05:57;32.17;;;17.93;;
20559;SDS011;10438;51.454;6.718;2022-11-20T14:08:38;34.93;;;17.43;;
20559;SDS011;10438;51.454;6.718;2022-11-20T14:11:28;36.53;;;17.97;;
20559;SDS011;10438;51.454;6.718;2022-11-20T14:14:10;39.87;;;19.10;;
20559;SDS011;10438;51.454;6.718;2022-11-20T14:16:41;34.10;;;17.30;;
20559;SDS011;10438;51.454;6.718;2022-11-20T14:21:47;33.73;;;18.47;;
20559;SDS011;10438;51.454;6.718;2022-11-20T14:24:23;34.37;;;18.47;;
20559;SDS011;10438;51.454;6.718;2022-11-20T14:26:50;32.83;;;17.77;;
20559;SDS011;10438;51.454;6.718;2022-11-20T14:29:21;36.13;;;18.70;;
20559;SDS011;10438;51.454;6.718;2022-11-20T14:31:53;35.63;;;18.33;;
20559;SDS011;10438;51.454;6.718;2022-11-20T14:34:30;37.03;;;19.17;;
20559;SDS011;10438;51.454;6.718;2022-11-20T14:37:01;37.97;;;18.63;;
20559;SDS011;10438;51.454;6.718;2022-11-20T14:39:30;34.10;;;18.37;;
20559;SDS011;10438;51.454;6.718;2022-11-20T14:42:00;35.77;;;19.00;;
20559;SDS011;10438;51.454;6.718;2022-11-20T14:44:27;33.40;;;17.40;;
20559;SDS011;10438;51.454;6.718;2022-11-20T14:46:56;41.87;;;19.03;;
20559;SDS011;10438;51.454;6.718;2022-11-20T14:49:23;39.63;;;19.57;;
20559;SDS011;10438;51.454;6.718;2022-11-20T14:51:58;37.63;;;19.63;;
20559;SDS011;10438;51.454;6.718;2022-11-20T14:54:42;39.00;;;19.23;;
20559;SDS011;10438;51.454;6.718;2022-11-20T14:57:18;35.70;;;19.97;;
20559;SDS011;10438;51.454;6.718;2022-11-20T14:59:50;39.67;;;20.23;;
20559;SDS011;10438;51.454;6.718;2022-11-20T15:02:16;42.63;;;19.00;;
20559;SDS011;10438;51.454;6.718;2022-11-20T15:05:01;42.83;;;19.43;;
20559;SDS011;10438;51.454;6.718;2022-11-20T15:07:31;37.13;;;19.90;;
20559;SDS011;10438;51.454;6.718;2022-11-20T15:10:06;40.40;;;20.50;;
20559;SDS011;10438;51.454;6.718;2022-11-20T15:12:38;37.97;;;20.37;;
20559;SDS011;10438;51.454;6.718;2022-11-20T15:15:17;40.93;;;20.67;;
20559;SDS011;10438;51.454;6.718;2022-11-20T15:17:46;41.27;;;20.87;;
20559;SDS011;10438;51.454;6.718;2022-11-20T15:20:13;36.53;;;19.40;;
20559;SDS011;10438;51.454;6.718;2022-11-20T15:22:41;39.40;;;20.63;;
20559;SDS011;10438;51.454;6.718;2022-11-20T15:25:16;44.27;;;21.07;;
20559;SDS011;10438;51.454;6.718;2022-11-20T15:27:43;45.90;;;20.23;;
20559;SDS011;10438;51.454;6.718;2022-11-20T15:30:13;44.27;;;20.93;;
20559;SDS011;10438;51.454;6.718;2022-11-20T15:32:41;41.87;;;20.03;;
20559;SDS011;10438;51.454;6.718;2022-11-20T15:35:07;44.43;;;21.23;;
20559;SDS011;10438;51.454;6.718;2022-11-20T15:37:33;41.50;;;20.63;;
20559;SDS011;10438;51.454;6.718;2022-11-20T15:39:58;39.77;;;19.87;;
20559;SDS011;10438;51.454;6.718;2022-11-20T15:42:24;44.80;;;20.43;;
20559;SDS011;10438;51.454;6.718;2022-11-20T15:44:49;38.13;;;19.50;;
20559;SDS011;10438;51.454;6.718;2022-11-20T15:47:15;44.77;;;20.40;;
20559;SDS011;10438;51.454;6.718;2022-11-20T15:49:42;46.70;;;21.20;;
20559;SDS011;10438;51.454;6.718;2022-11-20T15:52:08;42.50;;;20.80;;
20559;SDS011;10438;51.454;6.718;2022-11-20T15:54:41;42.53;;;21.23;;
20559;SDS011;10438;51.454;6.718;2022-11-20T15:57:06;47.97;;;22.23;;
20559;SDS011;10438;51.454;6.718;2022-11-20T15:59:32;42.30;;;20.93;;
20559;SDS011;10438;51.454;6.718;2022-11-20T16:01:58;43.77;;;21.40;;
20559;SDS011;10438;51.454;6.718;2022-11-20T16:04:23;45.03;;;20.80;;